createdAt,value
2022-10-31T00:02:46.303Z,100634.53
2022-10-31T00:05:50.140Z,100630.25
2022-10-31T00:08:58.503Z,100629.47
2022-10-31T00:12:00.431Z,100630.72
2022-10-31T00:15:02.481Z,100640.28
2022-10-31T00:18:06.157Z,100632.50
2022-10-31T00:21:08.151Z,100634.22
2022-10-31T00:24:10.212Z,100637.63
2022-10-31T00:27:12.264Z,100636.78
2022-10-31T00:30:14.223Z,100638.34
2022-10-31T00:33:16.235Z,100642.53
2022-10-31T00:36:20.144Z,100643.38
2022-10-31T00:39:22.145Z,100643.22
2022-10-31T00:42:24.367Z,100649.12
2022-10-31T00:45:26.264Z,100648.03
2022-10-31T00:48:28.616Z,100646.16
2022-10-31T00:51:30.606Z,100642.50
2022-10-31T00:54:32.685Z,100639.78
2022-10-31T00:57:34.644Z,100640.72
2022-10-31T01:00:36.747Z,100635.50
2022-10-31T01:03:39.880Z,100639.00
2022-10-31T01:06:42.141Z,100639.78
2022-10-31T01:09:44.176Z,100639.19
2022-10-31T01:12:48.336Z,100638.44
2022-10-31T01:15:55.866Z,100630.78
2022-10-31T01:18:58.064Z,100627.19
2022-10-31T01:22:00.144Z,100622.78
2022-10-31T01:25:02.201Z,100622.06
2022-10-31T01:28:04.463Z,100629.09
2022-10-31T01:31:09.482Z,100632.09
2022-10-31T01:34:16.565Z,100625.12
2022-10-31T01:37:18.557Z,100609.75
2022-10-31T01:40:20.583Z,100622.72
2022-10-31T01:43:22.533Z,100616.56
2022-10-31T01:46:35.845Z,100616.03
2022-10-31T01:49:38.154Z,100609.91
2022-10-31T01:52:46.836Z,100612.47
2022-10-31T01:55:48.879Z,100610.53
2022-10-31T01:58:51.374Z,100610.37
2022-10-31T02:01:55.091Z,100609.69
2022-10-31T02:04:58.338Z,100603.34
2022-10-31T02:08:18.170Z,100606.94
2022-10-31T02:11:20.710Z,100600.03
2022-10-31T02:14:24.851Z,100595.75
2022-10-31T02:17:27.194Z,100602.28
2022-10-31T02:20:38.488Z,100600.66
2022-10-31T02:23:47.952Z,100595.31
2022-10-31T02:27:07.597Z,100602.44
2022-10-31T02:30:17.117Z,100602.69
2022-10-31T02:33:33.616Z,100591.66
2022-10-31T02:36:35.586Z,100593.44
2022-10-31T02:39:40.137Z,100602.91
2022-10-31T02:43:04.986Z,100598.34
2022-10-31T02:46:18.931Z,100598.25
2022-10-31T02:49:28.594Z,100607.13
2022-10-31T02:52:35.903Z,100598.41
2022-10-31T02:55:37.805Z,100604.38
2022-10-31T02:58:49.427Z,100606.09
2022-10-31T03:02:12.510Z,100599.81
2022-10-31T03:05:36.639Z,100602.84
2022-10-31T03:09:06.711Z,100605.19
2022-10-31T03:12:23.523Z,100602.84
2022-10-31T03:15:32.055Z,100603.69
2022-10-31T03:18:39.906Z,100603.22
2022-10-31T03:22:06.906Z,100609.13
2022-10-31T03:25:10.014Z,100611.72
2022-10-31T03:28:15.448Z,100611.47
2022-10-31T03:31:20.321Z,100614.34
2022-10-31T03:34:22.404Z,100610.13
2022-10-31T03:37:28.756Z,100603.41
2022-10-31T03:40:37.977Z,100612.72
2022-10-31T03:43:45.981Z,100617.31
2022-10-31T03:46:48.006Z,100617.06
2022-10-31T03:49:50.462Z,100611.38
2022-10-31T03:53:03.834Z,100620.69
2022-10-31T03:56:20.405Z,100617.53
2022-10-31T03:59:35.638Z,100616.66
2022-10-31T04:02:43.692Z,100624.59
2022-10-31T04:05:50.396Z,100619.16
2022-10-31T04:08:59.471Z,100622.91
2022-10-31T04:12:06.481Z,100623.19
2022-10-31T04:15:11.628Z,100624.44
2022-10-31T04:18:14.317Z,100613.72
2022-10-31T04:21:16.420Z,100615.44
2022-10-31T04:24:18.379Z,100623.09
2022-10-31T04:27:20.422Z,100625.16
2022-10-31T04:30:22.606Z,100626.94
2022-10-31T04:33:24.594Z,100632.81
2022-10-31T04:36:26.530Z,100625.06
2022-10-31T04:39:28.550Z,100628.16
2022-10-31T04:42:31.656Z,100627.44
2022-10-31T04:45:33.642Z,100624.25
2022-10-31T04:48:35.695Z,100622.56
2022-10-31T04:51:37.710Z,100621.84
2022-10-31T04:54:39.690Z,100625.06
2022-10-31T04:57:43.330Z,100630.09
2022-10-31T05:00:45.379Z,100631.62
2022-10-31T05:03:47.425Z,100635.91
2022-10-31T05:06:49.802Z,100632.66
2022-10-31T05:09:51.793Z,100632.66
2022-10-31T05:12:59.167Z,100632.03
2022-10-31T05:16:01.516Z,100632.97
2022-10-31T05:19:03.488Z,100636.38
2022-10-31T05:22:05.454Z,100632.97
2022-10-31T05:25:07.759Z,100632.31
2022-10-31T05:28:09.922Z,100637.59
2022-10-31T05:31:12.119Z,100638.84
2022-10-31T05:34:14.138Z,100638.53
2022-10-31T05:37:16.148Z,100638.53
2022-10-31T05:40:19.665Z,100642.72
2022-10-31T05:43:21.603Z,100653.84
2022-10-31T05:46:23.759Z,100646.78
2022-10-31T05:49:25.804Z,100654.41
2022-10-31T05:52:27.772Z,100657.03
2022-10-31T05:55:30.514Z,100654.50
2022-10-31T05:58:32.666Z,100660.47
2022-10-31T06:01:34.725Z,100662.31
2022-10-31T06:04:36.937Z,100660.63
2022-10-31T06:07:38.959Z,100666.34
2022-10-31T06:10:40.985Z,100667.19
2022-10-31T06:13:42.957Z,100673.12
2022-10-31T06:16:44.991Z,100670.38
2022-10-31T06:19:47.012Z,100674.53
2022-10-31T06:22:49.175Z,100679.25
2022-10-31T06:25:51.970Z,100680.03
2022-10-31T06:28:54.233Z,100676.66
2022-10-31T06:31:56.191Z,100680.34
2022-10-31T06:34:58.182Z,100684.44
2022-10-31T06:38:00.596Z,100688.81
2022-10-31T06:41:07.146Z,100691.22
2022-10-31T06:44:09.248Z,100685.09
2022-10-31T06:47:11.213Z,100692.00
2022-10-31T06:50:13.167Z,100691.16
2022-10-31T06:53:15.737Z,100683.84
2022-10-31T06:56:17.722Z,100693.25
2022-10-31T06:59:19.736Z,100692.56
2022-10-31T07:02:21.839Z,100697.69
2022-10-31T07:05:23.923Z,100695.84
2022-10-31T07:08:26.425Z,100702.44
2022-10-31T07:11:28.333Z,100705.06
2022-10-31T07:14:30.365Z,100707.34
2022-10-31T07:17:32.418Z,100706.91
2022-10-31T07:20:34.930Z,100706.03
2022-10-31T07:23:36.900Z,100699.81
2022-10-31T07:26:38.851Z,100715.19
2022-10-31T07:29:40.872Z,100715.53
2022-10-31T07:32:44.908Z,100720.34
2022-10-31T07:35:47.013Z,100719.94
2022-10-31T07:38:48.969Z,100714.13
2022-10-31T07:41:51.161Z,100728.56
2022-10-31T07:44:55.338Z,100728.91
2022-10-31T07:48:00.016Z,100728.13
2022-10-31T07:51:02.229Z,100728.00
2022-10-31T07:54:04.718Z,100722.56
2022-10-31T07:57:06.661Z,100725.84
2022-10-31T08:00:10.989Z,100720.97
2022-10-31T08:03:15.752Z,100729.13
2022-10-31T08:06:17.709Z,100724.81
2022-10-31T08:09:19.673Z,100730.44
2022-10-31T08:12:22.029Z,100736.62
2022-10-31T08:15:24.175Z,100729.84
2022-10-31T08:18:26.167Z,100734.91
2022-10-31T08:21:28.214Z,100727.41
2022-10-31T08:24:30.279Z,100736.44
2022-10-31T08:27:32.382Z,100735.78
2022-10-31T08:30:36.596Z,100730.22
2022-10-31T08:33:38.669Z,100721.94
2022-10-31T08:36:41.240Z,100730.00
2022-10-31T08:39:43.291Z,100724.72
2022-10-31T08:42:46.164Z,100727.78
2022-10-31T08:45:51.015Z,100735.22
2022-10-31T08:48:52.961Z,100724.63
2022-10-31T08:51:54.965Z,100734.09
2022-10-31T08:54:56.894Z,100733.09
2022-10-31T08:58:00.133Z,100731.03
2022-10-31T09:01:02.943Z,100737.25
2022-10-31T09:04:05.009Z,100737.88
2022-10-31T09:07:22.245Z,100732.47
2022-10-31T09:10:25.483Z,100743.00
2022-10-31T09:13:28.371Z,100737.25
2022-10-31T09:16:30.443Z,100743.16
2022-10-31T09:19:32.508Z,100741.28
2022-10-31T09:22:34.471Z,100741.13
2022-10-31T09:25:37.064Z,100735.03
2022-10-31T09:28:39.317Z,100733.91
2022-10-31T09:31:44.876Z,100739.22
2022-10-31T09:34:47.289Z,100736.66
2022-10-31T09:37:56.044Z,100735.09
2022-10-31T09:41:30.297Z,100737.41
2022-10-31T09:44:50.329Z,100741.25
2022-10-31T09:48:21.742Z,100742.63
2022-10-31T09:51:26.177Z,100743.31
2022-10-31T09:54:45.534Z,100740.53
2022-10-31T09:57:49.060Z,100743.78
2022-10-31T10:00:52.020Z,100733.53
2022-10-31T10:03:58.967Z,100735.16
2022-10-31T10:07:08.310Z,100727.78
2022-10-31T10:10:16.083Z,100732.91
2022-10-31T10:13:33.274Z,100731.31
2022-10-31T10:17:02.195Z,100728.50
2022-10-31T10:20:13.592Z,100726.25
2022-10-31T10:23:34.700Z,100717.94
2022-10-31T10:26:39.356Z,100722.78
2022-10-31T10:30:12.231Z,100723.19
2022-10-31T10:33:25.382Z,100727.34
2022-10-31T10:36:27.270Z,100721.87
2022-10-31T10:39:44.624Z,100723.38
2022-10-31T10:43:15.584Z,100713.75
2022-10-31T10:46:41.818Z,100716.22
2022-10-31T10:49:53.508Z,100713.75
2022-10-31T10:53:22.442Z,100710.47
2022-10-31T10:56:42.277Z,100707.50
2022-10-31T10:59:44.306Z,100709.22
2022-10-31T11:02:48.862Z,100703.34
2022-10-31T11:05:52.556Z,100698.22
2022-10-31T11:08:54.808Z,100696.50
2022-10-31T11:11:58.945Z,100694.06
2022-10-31T11:15:08.414Z,100700.50
2022-10-31T11:18:22.864Z,100702.22
2022-10-31T11:21:30.515Z,100699.25
2022-10-31T11:24:39.860Z,100691.31
2022-10-31T11:27:41.850Z,100688.34
2022-10-31T11:30:50.217Z,100694.25
2022-10-31T11:33:59.929Z,100691.22
2022-10-31T11:37:14.780Z,100688.25
2022-10-31T11:40:22.228Z,100684.75
2022-10-31T11:43:24.969Z,100685.13
2022-10-31T11:46:34.597Z,100686.09
2022-10-31T11:49:42.323Z,100685.44
2022-10-31T11:52:44.376Z,100678.03
2022-10-31T11:56:05.303Z,100683.59
2022-10-31T11:59:18.156Z,100681.91
2022-10-31T12:02:20.852Z,100675.81
2022-10-31T12:05:30.297Z,100676.97
2022-10-31T12:08:35.107Z,100677.37
2022-10-31T12:12:21.814Z,100667.47
2022-10-31T12:15:31.845Z,100665.56
2022-10-31T12:19:00.730Z,100660.59
2022-10-31T12:22:05.532Z,100663.69
2022-10-31T12:25:16.832Z,100661.59
2022-10-31T12:28:55.110Z,100658.25
2022-10-31T12:32:09.526Z,100654.94
2022-10-31T12:35:41.208Z,100654.91
2022-10-31T12:38:51.747Z,100646.69
2022-10-31T12:42:13.952Z,100653.41
2022-10-31T12:45:26.647Z,100648.94
2022-10-31T12:48:54.044Z,100643.50
2022-10-31T12:52:08.964Z,100651.69
2022-10-31T12:55:48.417Z,100636.25
2022-10-31T12:59:01.284Z,100641.81
2022-10-31T13:02:12.185Z,100644.47
2022-10-31T13:05:20.671Z,100636.63
2022-10-31T13:08:41.836Z,100641.34
2022-10-31T13:11:49.237Z,100627.75
2022-10-31T13:15:12.989Z,100627.44
2022-10-31T13:18:28.153Z,100629.63
2022-10-31T13:22:05.611Z,100623.03
2022-10-31T13:25:10.341Z,100625.47
2022-10-31T13:28:24.340Z,100616.53
2022-10-31T13:31:26.872Z,100621.78
2022-10-31T13:34:42.341Z,100621.84
2022-10-31T13:38:09.006Z,100623.34
2022-10-31T13:41:20.220Z,100620.44
2022-10-31T13:44:25.492Z,100619.75
2022-10-31T13:47:30.323Z,100622.41
2022-10-31T13:50:34.346Z,100614.56
2022-10-31T13:53:39.157Z,100616.63
2022-10-31T13:56:41.381Z,100618.31
2022-10-31T13:59:52.836Z,100616.50
2022-10-31T14:02:58.500Z,100611.94
2022-10-31T14:06:01.021Z,100607.69
2022-10-31T14:09:03.653Z,100609.09
2022-10-31T14:12:09.649Z,100610.91
2022-10-31T14:15:26.991Z,100599.47
2022-10-31T14:18:39.030Z,100607.88
2022-10-31T14:21:48.849Z,100603.81
2022-10-31T14:24:50.900Z,100608.06
2022-10-31T14:27:53.674Z,100595.75
2022-10-31T14:30:58.426Z,100602.78
2022-10-31T14:34:02.829Z,100591.50
2022-10-31T14:37:23.486Z,100596.34
2022-10-31T14:40:34.012Z,100595.12
2022-10-31T14:43:51.632Z,100597.78
2022-10-31T14:47:09.410Z,100594.16
2022-10-31T14:50:48.440Z,100594.22
2022-10-31T14:53:53.672Z,100597.94
2022-10-31T14:57:00.939Z,100604.00
2022-10-31T15:00:07.554Z,100599.06
2022-10-31T15:03:22.008Z,100593.50
2022-10-31T15:06:25.632Z,100600.22
2022-10-31T15:09:34.327Z,100597.19
2022-10-31T15:12:39.555Z,100574.00
2022-10-31T15:15:41.918Z,100599.00
2022-10-31T15:18:54.459Z,100585.38
2022-10-31T15:21:58.431Z,100591.53
2022-10-31T15:25:00.460Z,100594.38
2022-10-31T15:28:02.976Z,100592.84
2022-10-31T15:31:05.426Z,100593.16
2022-10-31T15:34:17.747Z,100589.00
2022-10-31T15:37:25.477Z,100590.50
2022-10-31T15:40:28.168Z,100595.22
2022-10-31T15:43:36.580Z,100598.19
2022-10-31T15:46:38.713Z,100594.00
2022-10-31T15:50:01.020Z,100586.25
2022-10-31T15:53:05.971Z,100595.81
2022-10-31T15:56:12.421Z,100590.59
2022-10-31T15:59:27.993Z,100594.47
2022-10-31T16:02:30.107Z,100604.03
2022-10-31T16:05:50.277Z,100603.28
2022-10-31T16:08:52.475Z,100599.87
2022-10-31T16:11:58.142Z,100605.94
2022-10-31T16:15:00.151Z,100606.09
2022-10-31T16:18:02.233Z,100612.28
2022-10-31T16:21:13.597Z,100608.56
2022-10-31T16:24:29.116Z,100602.72
2022-10-31T16:27:33.714Z,100614.00
2022-10-31T16:30:46.999Z,100614.84
2022-10-31T16:33:50.278Z,100623.75
2022-10-31T16:36:52.371Z,100622.91
2022-10-31T16:39:54.386Z,100627.25
2022-10-31T16:42:59.170Z,100634.34
2022-10-31T16:46:01.568Z,100629.91
2022-10-31T16:49:03.924Z,100632.56
2022-10-31T16:52:06.299Z,100631.53
2022-10-31T16:55:12.570Z,100634.91
2022-10-31T16:58:22.800Z,100634.06
2022-10-31T17:01:25.035Z,100635.09
2022-10-31T17:04:27.441Z,100635.88
2022-10-31T17:07:29.992Z,100634.91
2022-10-31T17:10:32.596Z,100646.47
2022-10-31T17:13:35.020Z,100645.69
2022-10-31T17:16:37.604Z,100644.37
2022-10-31T17:19:39.633Z,100646.19
2022-10-31T17:22:41.901Z,100647.88
2022-10-31T17:25:44.669Z,100650.72
2022-10-31T17:28:48.287Z,100652.62
2022-10-31T17:31:51.101Z,100650.75
2022-10-31T17:34:53.873Z,100645.53
2022-10-31T17:37:56.525Z,100644.44
2022-10-31T17:40:59.804Z,100649.84
2022-10-31T17:44:02.715Z,100645.44
2022-10-31T17:47:06.364Z,100639.12
2022-10-31T17:50:09.783Z,100641.09
2022-10-31T17:53:12.697Z,100646.38
2022-10-31T17:56:17.310Z,100640.72
2022-10-31T17:59:30.224Z,100637.94
2022-10-31T18:02:36.218Z,100640.72
2022-10-31T18:05:38.998Z,100637.94
2022-10-31T18:08:42.521Z,100642.22
2022-10-31T18:11:45.729Z,100635.22
2022-10-31T18:14:48.969Z,100629.06
2022-10-31T18:17:52.126Z,100629.59
2022-10-31T18:20:57.896Z,100633.97
2022-10-31T18:24:02.420Z,100631.69
2022-10-31T18:27:07.427Z,100634.34
2022-10-31T18:30:11.070Z,100634.41
2022-10-31T18:33:14.643Z,100635.34
2022-10-31T18:36:17.250Z,100640.75
2022-10-31T18:39:21.451Z,100633.91
2022-10-31T18:42:24.447Z,100636.84
2022-10-31T18:45:46.606Z,100636.75
2022-10-31T18:48:50.091Z,100632.56
2022-10-31T18:51:53.389Z,100641.50
2022-10-31T18:54:56.039Z,100637.22
2022-10-31T18:57:59.099Z,100636.56
2022-10-31T19:01:07.895Z,100634.66
2022-10-31T19:04:12.462Z,100627.47
2022-10-31T19:07:15.114Z,100633.47
2022-10-31T19:10:18.166Z,100630.91
2022-10-31T19:13:21.720Z,100634.13
2022-10-31T19:16:25.364Z,100631.59
2022-10-31T19:19:29.521Z,100626.34
2022-10-31T19:22:32.439Z,100625.44
2022-10-31T19:25:35.247Z,100625.62
2022-10-31T19:28:41.157Z,100629.97
2022-10-31T19:31:44.346Z,100631.47
2022-10-31T19:34:47.014Z,100630.72
2022-10-31T19:37:49.596Z,100632.34
2022-10-31T19:40:58.112Z,100632.16
2022-10-31T19:44:15.994Z,100633.22
2022-10-31T19:47:19.291Z,100631.59
2022-10-31T19:50:22.303Z,100629.00
2022-10-31T19:53:26.068Z,100635.00
2022-10-31T19:56:35.268Z,100630.56
2022-10-31T19:59:39.641Z,100629.50
2022-10-31T20:02:42.860Z,100638.22
2022-10-31T20:05:46.563Z,100634.63
2022-10-31T20:08:50.355Z,100643.53
2022-10-31T20:11:53.323Z,100638.22
2022-10-31T20:14:56.461Z,100633.94
2022-10-31T20:17:59.400Z,100629.72
2022-10-31T20:21:23.374Z,100625.94
2022-10-31T20:24:26.539Z,100629.25
2022-10-31T20:27:30.199Z,100630.03
2022-10-31T20:30:37.082Z,100625.47
2022-10-31T20:33:40.859Z,100634.44
2022-10-31T20:36:46.170Z,100634.44
2022-10-31T20:39:52.568Z,100630.37
2022-10-31T20:42:58.409Z,100633.22
2022-10-31T20:46:07.007Z,100613.28
2022-10-31T20:49:10.232Z,100622.59
2022-10-31T20:52:13.265Z,100629.59
2022-10-31T20:55:16.481Z,100627.25
2022-10-31T20:58:19.076Z,100631.75
2022-10-31T21:01:24.444Z,100630.97
2022-10-31T21:04:27.040Z,100634.66
2022-10-31T21:07:31.076Z,100631.94
2022-10-31T21:10:33.986Z,100627.47
2022-10-31T21:13:40.592Z,100629.28
2022-10-31T21:16:43.375Z,100628.50
2022-10-31T21:19:45.392Z,100627.75
2022-10-31T21:22:47.367Z,100625.00
2022-10-31T21:25:49.859Z,100621.50
2022-10-31T21:28:54.684Z,100621.50
2022-10-31T21:31:56.672Z,100616.41
2022-10-31T21:34:58.692Z,100619.87
2022-10-31T21:38:00.993Z,100618.38
2022-10-31T21:41:14.500Z,100619.66
2022-10-31T21:44:16.577Z,100624.19
2022-10-31T21:47:18.685Z,100626.84
2022-10-31T21:50:20.751Z,100615.47
2022-10-31T21:53:41.265Z,100616.34
2022-10-31T21:56:43.744Z,100621.81
2022-10-31T21:59:48.570Z,100617.72
2022-10-31T22:02:50.587Z,100618.72
2022-10-31T22:05:54.751Z,100616.69
2022-10-31T22:09:02.950Z,100618.41
2022-10-31T22:12:06.849Z,100625.66
2022-10-31T22:15:09.099Z,100614.78
2022-10-31T22:18:11.121Z,100621.88
2022-10-31T22:21:19.447Z,100621.22
2022-10-31T22:24:21.480Z,100614.38
2022-10-31T22:27:23.432Z,100612.84
2022-10-31T22:30:27.593Z,100611.91
2022-10-31T22:33:29.604Z,100617.25
2022-10-31T22:36:32.144Z,100614.72
2022-10-31T22:39:34.138Z,100622.72
2022-10-31T22:42:36.199Z,100623.66
2022-10-31T22:45:38.194Z,100617.00
2022-10-31T22:48:43.303Z,100620.50
2022-10-31T22:51:45.904Z,100615.06
2022-10-31T22:54:47.962Z,100613.16
2022-10-31T22:57:50.136Z,100617.50
2022-10-31T23:00:52.224Z,100617.50
2022-10-31T23:03:54.530Z,100612.06
2022-10-31T23:06:56.695Z,100605.34
2022-10-31T23:09:58.720Z,100608.31
2022-10-31T23:13:19.683Z,100609.16
2022-10-31T23:16:21.591Z,100612.38
2022-10-31T23:19:29.108Z,100609.78
2022-10-31T23:22:31.070Z,100606.03
2022-10-31T23:25:51.366Z,100606.84
2022-10-31T23:28:53.673Z,100613.13
2022-10-31T23:31:55.827Z,100607.78
2022-10-31T23:35:06.631Z,100603.34
2022-10-31T23:38:08.602Z,100593.94
2022-10-31T23:41:10.633Z,100592.06
2022-10-31T23:44:12.661Z,100585.06
2022-10-31T23:47:15.838Z,100578.41
2022-10-31T23:50:17.964Z,100578.50
2022-10-31T23:53:20.135Z,100580.59
2022-10-31T23:56:22.114Z,100573.59
2022-10-31T23:59:25.230Z,100582.38
